Time;durP1;ratioP1;P1;durP2;ratioP2;P2;SDS_P1;SDS_P2;PMS_P1;PMS_P2;Temp;Humidity;BMP_temperature;BMP_pressure;BME280_temperature;BME280_humidity;BME280_pressure;Samples;Min_cycle;Max_cycle;Signal;HPM_P1;HPM_P2
2023/04/04 00:02:02;;;;;;;1.38;0.95;;;6.40;46.50;;;;;;5030355;28;20088;-46
2023/04/04 00:04:29;;;;;;;0.98;0.75;;;6.30;46.70;;;;;;5027843;28;20040;-47
2023/04/04 00:06:57;;;;;;;4.40;1.40;;;6.30;46.80;;;;;;5029844;28;20160;-46
2023/04/04 00:09:31;;;;;;;1.30;0.80;;;6.20;46.90;;;;;;5039807;28;20118;-48
2023/04/04 00:11:59;;;;;;;3.80;1.17;;;6.20;47.10;;;;;;5039151;28;20037;-48
2023/04/04 00:14:28;;;;;;;2.25;1.10;;;6.20;47.20;;;;;;5036953;28;20079;-48
2023/04/04 00:16:57;;;;;;;1.83;1.48;;;6.10;47.30;;;;;;5036260;28;20033;-47
2023/04/04 00:19:24;;;;;;;1.90;1.30;;;6.10;47.50;;;;;;5030035;28;20553;-47
2023/04/04 00:21:55;;;;;;;1.52;0.90;;;6.00;47.50;;;;;;5021148;28;20043;-46
2023/04/04 00:24:29;;;;;;;2.83;1.15;;;6.00;47.70;;;;;;5025605;28;20038;-46
2023/04/04 00:26:58;;;;;;;2.85;1.15;;;5.90;47.60;;;;;;5012860;28;20054;-46
2023/04/04 00:29:33;;;;;;;1.90;0.98;;;5.90;47.80;;;;;;5030366;28;20056;-45
2023/04/04 00:32:02;;;;;;;2.40;0.88;;;5.80;48.10;;;;;;5021377;28;20053;-45
2023/04/04 00:34:28;;;;;;;2.03;1.20;;;5.80;47.90;;;;;;5025048;28;20068;-46
2023/04/04 00:36:55;;;;;;;2.00;1.00;;;5.80;48.10;;;;;;5021336;28;20564;-44
2023/04/04 00:39:26;;;;;;;3.13;1.25;;;5.80;48.20;;;;;;5013131;28;20092;-48
2023/04/04 00:41:55;;;;;;;1.63;1.20;;;5.70;48.30;;;;;;5039461;28;20500;-46
2023/04/04 00:44:22;;;;;;;1.52;1.40;;;5.70;48.40;;;;;;5005204;28;20132;-47
2023/04/04 00:46:51;;;;;;;2.00;1.17;;;5.70;48.50;;;;;;5024413;28;20037;-46
2023/04/04 00:49:20;;;;;;;2.22;1.52;;;5.70;49.30;;;;;;5034150;28;20034;-48
2023/04/04 00:51:47;;;;;;;1.23;1.13;;;5.60;48.60;;;;;;5026799;28;20497;-49
2023/04/04 00:54:13;;;;;;;2.67;1.13;;;5.60;48.70;;;;;;5039850;28;20047;-47
2023/04/04 00:56:40;;;;;;;1.38;1.23;;;5.50;48.70;;;;;;5036653;28;20815;-45
2023/04/04 00:59:18;;;;;;;2.47;1.13;;;5.50;48.90;;;;;;5016085;28;20496;-46
2023/04/04 01:01:45;;;;;;;1.67;1.13;;;5.50;48.90;;;;;;5014010;28;20064;-49
2023/04/04 01:04:12;;;;;;;2.78;1.75;;;5.40;49.00;;;;;;5012863;28;20042;-46
2023/04/04 01:06:41;;;;;;;2.13;1.15;;;5.50;49.10;;;;;;5019352;28;20069;-45
2023/04/04 01:09:15;;;;;;;2.40;1.23;;;5.40;49.10;;;;;;5013126;28;20077;-45
2023/04/04 01:11:44;;;;;;;3.00;1.77;;;5.40;50.40;;;;;;5010889;28;20616;-47
2023/04/04 01:14:14;;;;;;;3.28;1.25;;;5.40;49.30;;;;;;5016466;28;20029;-45
2023/04/04 01:16:43;;;;;;;2.30;1.25;;;5.30;49.40;;;;;;5035583;28;20057;-50
2023/04/04 01:19:31;;;;;;;2.97;1.23;;;5.30;49.40;;;;;;5011828;28;20037;-48
2023/04/04 01:22:08;;;;;;;1.77;1.45;;;5.30;49.90;;;;;;5013935;28;20088;-45
2023/04/04 01:24:45;;;;;;;2.20;1.67;;;5.30;49.50;;;;;;5012949;28;20085;-47
2023/04/04 01:27:15;;;;;;;1.50;1.05;;;5.20;49.80;;;;;;5028597;28;20508;-49
2023/04/04 01:29:50;;;;;;;3.58;1.90;;;5.20;49.50;;;;;;5031865;28;20536;-46
2023/04/04 01:32:44;;;;;;;3.15;1.70;;;5.20;49.60;;;;;;5017383;28;20121;-50
2023/04/04 01:35:44;;;;;;;2.38;1.40;;;5.20;50.60;;;;;;5032172;28;20060;-47
2023/04/04 01:38:28;;;;;;;2.28;1.52;;;5.10;50.50;;;;;;5040470;28;20075;-47
2023/04/04 01:41:04;;;;;;;2.05;1.27;;;5.10;50.30;;;;;;5022197;28;20046;-49
2023/04/04 01:43:33;;;;;;;2.70;1.60;;;5.10;50.10;;;;;;5033824;28;20121;-49
2023/04/04 01:46:01;;;;;;;2.70;1.50;;;5.00;50.50;;;;;;5016725;28;20037;-50
2023/04/04 01:48:30;;;;;;;2.05;1.85;;;5.00;50.00;;;;;;5027750;28;20099;-46
2023/04/04 01:51:02;;;;;;;5.07;2.50;;;5.00;50.10;;;;;;5025183;28;20049;-45
2023/04/04 01:53:31;;;;;;;4.95;3.30;;;5.00;50.20;;;;;;5023390;28;20068;-46
2023/04/04 01:55:58;;;;;;;6.22;3.88;;;4.90;50.20;;;;;;5049216;28;20039;-48
2023/04/04 01:58:29;;;;;;;7.88;4.20;;;4.90;50.30;;;;;;5024337;28;20038;-46
2023/04/04 02:01:00;;;;;;;5.55;4.00;;;4.90;50.50;;;;;;5019343;28;20061;-50
2023/04/04 02:03:33;;;;;;;8.52;3.90;;;4.90;50.40;;;;;;5038740;28;20040;-46
2023/04/04 02:06:00;;;;;;;8.65;4.15;;;4.90;50.50;;;;;;5021440;28;20053;-48
2023/04/04 02:08:27;;;;;;;10.15;4.22;;;4.80;50.50;;;;;;5030905;28;20037;-45
2023/04/04 02:10:57;;;;;;;6.28;3.75;;;4.80;50.70;;;;;;5032407;28;20408;-47
2023/04/04 02:13:24;;;;;;;9.40;4.25;;;4.80;50.80;;;;;;5019134;28;20042;-48
2023/04/04 02:15:52;;;;;;;5.45;3.25;;;4.80;50.80;;;;;;5032773;28;20041;-47
2023/04/04 02:18:19;;;;;;;6.40;3.75;;;4.70;50.90;;;;;;5033767;28;20037;-48
2023/04/04 02:20:54;;;;;;;6.32;3.28;;;4.70;50.90;;;;;;5021567;28;20045;-49
2023/04/04 02:23:21;;;;;;;4.63;3.13;;;4.70;51.50;;;;;;5036021;28;20040;-45
2023/04/04 02:25:50;;;;;;;6.10;2.80;;;4.60;51.00;;;;;;5031305;28;20049;-48
2023/04/04 02:28:18;;;;;;;3.08;2.22;;;4.60;51.00;;;;;;5034567;28;20049;-49
2023/04/04 02:30:49;;;;;;;4.35;2.78;;;4.60;51.00;;;;;;5024168;28;20037;-48
2023/04/04 02:33:16;;;;;;;5.68;2.53;;;4.60;51.10;;;;;;5016204;28;20561;-46
2023/04/04 02:35:46;;;;;;;3.70;2.38;;;4.60;51.20;;;;;;5033247;28;20040;-48
2023/04/04 02:38:22;;;;;;;3.13;2.20;;;4.60;51.50;;;;;;5032568;28;20042;-45
2023/04/04 02:40:54;;;;;;;4.15;2.22;;;4.50;51.50;;;;;;5036194;28;20037;-49
2023/04/04 02:43:23;;;;;;;3.45;2.03;;;4.50;51.40;;;;;;5032130;28;20045;-45
2023/04/04 02:45:54;;;;;;;4.13;2.38;;;4.50;51.50;;;;;;5032190;28;20056;-47
2023/04/04 02:48:26;;;;;;;5.28;2.92;;;4.40;51.40;;;;;;5029047;28;20051;-47
2023/04/04 02:50:59;;;;;;;3.28;2.67;;;4.40;51.40;;;;;;5006497;28;20502;-46
2023/04/04 02:53:29;;;;;;;3.28;2.45;;;4.40;51.50;;;;;;5032960;28;20488;-46
2023/04/04 02:56:02;;;;;;;4.35;2.10;;;4.40;51.60;;;;;;5030640;28;20144;-45
2023/04/04 02:58:33;;;;;;;4.18;2.60;;;4.30;51.50;;;;;;5018344;28;20416;-45
2023/04/04 03:01:02;;;;;;;2.30;1.98;;;4.30;51.70;;;;;;5020885;28;20048;-45
2023/04/04 03:03:36;;;;;;;2.22;2.03;;;4.30;51.70;;;;;;5015454;28;20046;-48
2023/04/04 03:06:03;;;;;;;3.72;1.75;;;4.30;52.00;;;;;;5041235;28;20706;-45
2023/04/04 03:08:35;;;;;;;3.25;2.20;;;4.20;51.80;;;;;;5041305;28;20041;-48
2023/04/04 03:11:02;;;;;;;2.63;2.38;;;4.30;51.90;;;;;;5040063;28;20041;-46
2023/04/04 03:13:30;;;;;;;6.68;1.90;;;4.20;52.00;;;;;;5031989;28;20037;-45
2023/04/04 03:16:02;;;;;;;2.65;2.28;;;4.20;52.00;;;;;;5033774;28;20040;-47
2023/04/04 03:18:43;;;;;;;5.90;2.05;;;4.20;52.10;;;;;;5033285;28;20043;-47
2023/04/04 03:21:12;;;;;;;3.50;1.73;;;4.10;52.00;;;;;;5020698;28;20033;-45
2023/04/04 03:23:41;;;;;;;1.92;1.75;;;4.10;52.00;;;;;;5032849;28;20040;-46
2023/04/04 03:26:08;;;;;;;2.50;1.77;;;4.10;52.10;;;;;;5033456;28;20064;-46
2023/04/04 03:28:35;;;;;;;3.33;2.40;;;4.10;52.10;;;;;;5031861;28;20132;-46
2023/04/04 03:31:07;;;;;;;3.00;2.03;;;4.10;52.20;;;;;;5026502;28;20556;-46
2023/04/04 03:33:41;;;;;;;2.20;2.00;;;4.10;52.40;;;;;;5023392;28;20049;-46
2023/04/04 03:36:14;;;;;;;4.30;1.90;;;4.00;52.30;;;;;;5038129;28;20378;-45
2023/04/04 03:38:43;;;;;;;2.22;1.70;;;4.00;52.50;;;;;;5039255;28;20049;-46
2023/04/04 03:41:14;;;;;;;4.20;2.20;;;4.00;52.30;;;;;;5020340;28;20041;-48
2023/04/04 03:43:47;;;;;;;3.55;2.05;;;4.00;52.40;;;;;;5027949;28;20045;-47
2023/04/04 03:46:21;;;;;;;3.45;2.35;;;3.90;52.40;;;;;;5020407;28;20041;-49
2023/04/04 03:48:50;;;;;;;3.83;2.15;;;3.90;52.40;;;;;;5012878;28;20084;-44
2023/04/04 03:51:26;;;;;;;3.38;1.90;;;3.90;52.40;;;;;;5020287;28;20099;-45
2023/04/04 03:53:56;;;;;;;2.15;1.95;;;3.90;52.90;;;;;;5027012;28;20100;-47
2023/04/04 03:56:23;;;;;;;2.85;1.35;;;3.90;52.60;;;;;;5039285;28;20416;-45
2023/04/04 03:58:49;;;;;;;3.72;1.80;;;3.80;52.40;;;;;;5035542;28;20033;-45
2023/04/04 04:01:22;;;;;;;2.67;1.80;;;3.80;52.50;;;;;;5049598;23;20499;-43
2023/04/04 04:03:51;;;;;;;2.20;1.92;;;3.80;52.60;;;;;;5035877;28;20045;-43
2023/04/04 04:06:18;;;;;;;2.63;1.80;;;3.80;52.70;;;;;;5027051;28;20046;-42
2023/04/04 04:08:45;;;;;;;3.05;1.83;;;3.80;52.70;;;;;;5035147;28;20038;-45
2023/04/04 04:11:14;;;;;;;3.42;2.35;;;3.70;52.70;;;;;;5022783;28;20056;-43
2023/04/04 04:13:43;;;;;;;2.47;2.28;;;3.70;52.80;;;;;;5022241;28;20038;-43
2023/04/04 04:16:16;;;;;;;2.95;2.08;;;3.70;53.00;;;;;;5026635;28;20667;-43
2023/04/04 04:18:43;;;;;;;2.60;1.92;;;3.70;53.00;;;;;;5024424;28;20041;-44
2023/04/04 04:21:15;;;;;;;2.38;1.70;;;3.60;52.90;;;;;;5023682;28;20072;-45
2023/04/04 04:23:46;;;;;;;2.40;2.00;;;3.60;52.80;;;;;;5020590;28;20571;-46
2023/04/04 04:26:13;;;;;;;3.83;2.15;;;3.60;52.90;;;;;;5034539;28;20044;-46
2023/04/04 04:28:42;;;;;;;1.92;1.75;;;3.60;52.90;;;;;;5031872;28;20091;-44
2023/04/04 04:31:13;;;;;;;3.28;1.67;;;3.60;52.90;;;;;;5040315;28;20087;-45
2023/04/04 04:33:47;;;;;;;2.50;2.30;;;3.60;53.50;;;;;;5031908;28;20671;-44
2023/04/04 04:36:20;;;;;;;3.63;2.20;;;3.50;52.90;;;;;;5028971;28;20034;-45
2023/04/04 04:38:54;;;;;;;3.58;2.08;;;3.50;52.90;;;;;;5015104;28;20128;-43
2023/04/04 04:41:25;;;;;;;2.55;2.20;;;3.50;52.90;;;;;;5026447;28;20041;-45
2023/04/04 04:43:51;;;;;;;3.20;2.60;;;3.50;53.00;;;;;;5021002;28;20589;-45
2023/04/04 04:46:19;;;;;;;4.72;2.15;;;3.40;53.00;;;;;;5011079;28;20053;-46
2023/04/04 04:48:46;;;;;;;2.45;2.22;;;3.40;53.00;;;;;;5010188;28;20041;-43
2023/04/04 04:51:14;;;;;;;4.30;1.88;;;3.40;53.10;;;;;;5009447;28;20045;-46
2023/04/04 04:53:50;;;;;;;4.30;2.47;;;3.40;53.10;;;;;;5028182;28;20045;-44
2023/04/04 04:56:18;;;;;;;4.10;2.10;;;3.30;53.00;;;;;;5026444;28;20045;-46
2023/04/04 04:58:49;;;;;;;3.40;2.22;;;3.30;53.10;;;;;;5009803;28;20530;-43
2023/04/04 05:01:22;;;;;;;3.13;2.05;;;3.30;53.10;;;;;;5020366;28;20527;-43
2023/04/04 05:03:49;;;;;;;4.93;2.65;;;3.30;53.20;;;;;;5024777;28;20140;-43
2023/04/04 05:06:26;;;;;;;4.90;2.50;;;3.40;53.30;;;;;;5021321;28;20468;-46
2023/04/04 05:08:53;;;;;;;3.75;2.08;;;3.30;53.20;;;;;;5037156;28;20037;-43
2023/04/04 05:11:32;;;;;;;4.68;2.92;;;3.30;53.30;;;;;;5028332;28;20046;-43
2023/04/04 05:14:01;;;;;;;3.88;2.65;;;3.20;53.30;;;;;;5005247;28;20099;-44
2023/04/04 05:16:33;;;;;;;3.85;2.88;;;3.20;53.40;;;;;;5018139;28;20044;-45
2023/04/04 05:19:01;;;;;;;2.80;2.38;;;3.20;53.40;;;;;;5032127;28;20043;-43
2023/04/04 05:21:29;;;;;;;3.55;2.42;;;3.20;53.50;;;;;;5013312;28;20042;-43
2023/04/04 05:23:58;;;;;;;3.90;2.55;;;3.20;53.50;;;;;;5008821;28;20072;-44
2023/04/04 05:26:25;;;;;;;4.55;3.03;;;3.20;53.60;;;;;;5028544;28;20041;-44
2023/04/04 05:28:54;;;;;;;3.05;2.53;;;3.10;53.70;;;;;;5029498;28;20041;-44
2023/04/04 05:31:23;;;;;;;5.20;2.55;;;3.10;53.70;;;;;;5037064;28;20505;-44
2023/04/04 05:33:52;;;;;;;5.18;2.70;;;3.10;53.70;;;;;;5007747;28;20531;-43
2023/04/04 05:36:28;;;;;;;2.70;2.35;;;3.10;53.80;;;;;;5013075;28;20045;-43
2023/04/04 05:39:00;;;;;;;5.07;3.13;;;3.10;53.80;;;;;;5008378;28;20044;-44
2023/04/04 05:41:32;;;;;;;4.00;2.58;;;3.10;54.50;;;;;;5020402;28;20062;-44
2023/04/04 05:44:06;;;;;;;3.83;2.47;;;3.10;54.00;;;;;;5015348;28;20495;-46
2023/04/04 05:46:33;;;;;;;2.72;2.30;;;3.10;54.20;;;;;;5017984;28;20049;-44
2023/04/04 05:49:00;;;;;;;3.72;2.53;;;3.20;54.40;;;;;;5021342;28;20099;-44
2023/04/04 05:51:27;;;;;;;5.28;2.90;;;3.20;54.60;;;;;;5030788;28;20065;-45
2023/04/04 05:54:06;;;;;;;3.97;3.00;;;3.20;55.30;;;;;;5032092;28;20448;-47
2023/04/04 05:56:33;;;;;;;5.53;2.95;;;3.20;54.70;;;;;;5008544;28;20046;-46
2023/04/04 05:59:03;;;;;;;3.75;2.55;;;3.20;54.80;;;;;;5020819;28;20049;-44
2023/04/04 06:01:34;;;;;;;3.63;3.05;;;3.30;54.80;;;;;;5023560;28;20048;-44
2023/04/04 06:04:08;;;;;;;3.72;2.40;;;3.30;54.90;;;;;;5023030;28;20056;-45
2023/04/04 06:06:35;;;;;;;2.72;2.38;;;3.30;54.90;;;;;;5044700;28;20574;-44
2023/04/04 06:09:02;;;;;;;3.30;2.58;;;3.30;55.60;;;;;;5040669;28;20037;-44
2023/04/04 06:11:29;;;;;;;5.78;3.53;;;3.40;55.00;;;;;;5030126;28;20755;-44
2023/04/04 06:14:02;;;;;;;4.50;2.88;;;3.40;55.10;;;;;;5000924;28;20571;-44
2023/04/04 06:16:29;;;;;;;3.67;2.85;;;3.40;55.10;;;;;;5023417;28;20038;-43
2023/04/04 06:18:56;;;;;;;3.53;2.88;;;3.40;55.10;;;;;;5050671;28;20144;-43
2023/04/04 06:21:22;;;;;;;5.13;2.50;;;3.40;55.20;;;;;;5031767;28;20037;-43
2023/04/04 06:23:49;;;;;;;3.67;3.20;;;3.50;55.20;;;;;;5010756;28;20053;-44
2023/04/04 06:26:16;;;;;;;4.20;2.92;;;3.50;55.20;;;;;;5023981;28;20096;-44
2023/04/04 06:28:50;;;;;;;2.58;2.38;;;3.50;55.30;;;;;;5047292;28;20116;-44
2023/04/04 06:31:23;;;;;;;4.32;2.78;;;3.60;55.70;;;;;;5038182;28;20072;-45
2023/04/04 06:33:53;;;;;;;4.90;2.92;;;3.60;55.30;;;;;;5012985;28;20087;-42
2023/04/04 06:36:22;;;;;;;4.13;3.13;;;3.70;55.50;;;;;;5010700;28;20041;-44
2023/04/04 06:38:50;;;;;;;3.97;3.40;;;3.70;55.60;;;;;;5023030;28;20038;-44
2023/04/04 06:41:19;;;;;;;4.40;4.00;;;3.70;55.70;;;;;;5015837;28;20416;-44
2023/04/04 06:43:48;;;;;;;4.00;3.50;;;3.80;55.80;;;;;;5031387;28;20041;-46
2023/04/04 06:46:17;;;;;;;6.00;4.20;;;3.80;55.80;;;;;;5024786;28;20397;-43
2023/04/04 06:48:44;;;;;;;6.45;4.28;;;3.80;55.90;;;;;;5038693;28;20567;-43
2023/04/04 06:51:11;;;;;;;8.98;4.13;;;3.90;56.00;;;;;;5022865;28;20451;-45
2023/04/04 06:53:42;;;;;;;8.30;4.97;;;3.90;56.10;;;;;;5038379;28;20100;-45
2023/04/04 06:56:09;;;;;;;5.53;4.55;;;4.00;56.00;;;;;;5026539;28;20059;-45
2023/04/04 06:58:37;;;;;;;5.20;4.22;;;4.00;56.10;;;;;;5006736;28;20053;-44
2023/04/04 07:01:04;;;;;;;6.43;4.68;;;4.10;56.10;;;;;;5030825;28;20037;-43
2023/04/04 07:03:33;;;;;;;5.97;4.10;;;4.10;56.20;;;;;;5029394;28;20574;-43
2023/04/04 07:06:03;;;;;;;10.35;4.45;;;4.20;56.20;;;;;;5032573;28;20052;-44
2023/04/04 07:08:32;;;;;;;6.25;5.03;;;4.20;56.40;;;;;;5032613;28;20049;-44
2023/04/04 07:11:06;;;;;;;6.13;4.50;;;4.30;56.20;;;;;;5026336;28;20041;-43
2023/04/04 07:13:34;;;;;;;7.82;4.30;;;4.30;56.10;;;;;;5031049;28;20042;-44
2023/04/04 07:16:00;;;;;;;6.07;4.43;;;4.40;56.70;;;;;;5031475;28;20041;-44
2023/04/04 07:18:27;;;;;;;8.70;4.80;;;4.40;56.00;;;;;;5031971;28;20072;-43
2023/04/04 07:20:54;;;;;;;5.50;4.30;;;4.50;56.10;;;;;;5025052;28;20405;-44
2023/04/04 07:23:20;;;;;;;5.78;4.68;;;4.60;56.20;;;;;;5031833;28;20056;-46
2023/04/04 07:25:47;;;;;;;6.22;4.35;;;4.60;56.20;;;;;;5032036;28;20044;-43
2023/04/04 07:28:16;;;;;;;6.75;4.68;;;4.70;56.20;;;;;;5027593;28;20493;-47
2023/04/04 07:30:43;;;;;;;5.35;4.50;;;4.70;56.40;;;;;;5030996;28;20456;-47
2023/04/04 07:33:12;;;;;;;6.07;4.10;;;4.80;56.10;;;;;;5028354;28;20033;-46
2023/04/04 07:35:38;;;;;;;6.38;4.25;;;4.80;56.00;;;;;;5029769;28;20045;-44
2023/04/04 07:38:05;;;;;;;4.78;4.15;;;4.90;56.00;;;;;;5031188;28;20120;-46
2023/04/04 07:40:32;;;;;;;6.03;3.22;;;5.00;55.80;;;;;;5030909;28;20037;-44
2023/04/04 07:42:58;;;;;;;3.90;3.20;;;5.10;55.50;;;;;;5026704;28;20041;-43
2023/04/04 07:45:25;;;;;;;5.32;3.35;;;5.10;55.10;;;;;;5030410;28;20497;-44
2023/04/04 07:47:54;;;;;;;5.57;3.10;;;5.20;54.90;;;;;;5031223;28;20120;-43
2023/04/04 07:50:21;;;;;;;3.67;2.42;;;5.30;54.50;;;;;;5029189;28;20037;-44
2023/04/04 07:52:51;;;;;;;4.30;2.70;;;5.30;54.30;;;;;;5028415;28;20041;-43
2023/04/04 07:55:18;;;;;;;4.05;2.65;;;5.40;53.80;;;;;;5030436;28;20041;-44
2023/04/04 07:57:45;;;;;;;3.75;2.50;;;5.50;53.40;;;;;;5023733;28;20399;-46
2023/04/04 08:00:13;;;;;;;3.03;2.30;;;5.50;52.80;;;;;;5031152;28;20426;-44
2023/04/04 08:02:42;;;;;;;2.55;2.28;;;5.60;52.60;;;;;;5012320;28;20571;-47
2023/04/04 08:05:09;;;;;;;6.40;2.90;;;5.70;52.50;;;;;;5028136;28;20410;-46
2023/04/04 08:07:36;;;;;;;3.42;2.45;;;5.80;52.50;;;;;;5039634;28;20045;-47
2023/04/04 08:10:03;;;;;;;3.10;2.63;;;5.80;52.20;;;;;;5042246;28;20128;-46
2023/04/04 08:12:30;;;;;;;3.95;2.50;;;5.90;52.20;;;;;;5042922;28;20038;-43
2023/04/04 08:14:56;;;;;;;4.30;2.95;;;5.90;51.80;;;;;;5028157;28;20041;-48
2023/04/04 08:17:23;;;;;;;3.30;1.73;;;6.00;51.50;;;;;;5030664;28;20441;-49
2023/04/04 08:19:50;;;;;;;3.03;2.22;;;6.10;51.20;;;;;;5030495;28;20048;-45
2023/04/04 08:22:17;;;;;;;2.33;1.83;;;6.10;50.90;;;;;;5026978;28;20037;-43
2023/04/04 08:24:44;;;;;;;3.83;2.88;;;6.20;50.90;;;;;;5030965;28;20037;-45
2023/04/04 08:27:11;;;;;;;4.53;2.13;;;6.20;50.80;;;;;;5030315;28;20449;-44
2023/04/04 08:29:37;;;;;;;6.32;2.53;;;6.30;50.70;;;;;;5028554;28;20084;-43
2023/04/04 08:32:04;;;;;;;5.35;1.95;;;6.40;50.40;;;;;;5029261;28;20052;-44
2023/04/04 08:34:31;;;;;;;2.55;1.98;;;6.40;50.10;;;;;;5027563;28;20041;-48
2023/04/04 08:36:58;;;;;;;3.58;1.92;;;6.50;49.90;;;;;;5026709;28;20033;-44
2023/04/04 08:39:26;;;;;;;4.35;2.15;;;6.50;49.70;;;;;;5028419;28;20407;-44
2023/04/04 08:42:01;;;;;;;3.53;2.25;;;6.60;49.50;;;;;;5030112;28;20048;-46
2023/04/04 08:44:29;;;;;;;3.75;2.03;;;6.70;49.30;;;;;;5025506;28;20501;-45
2023/04/04 08:46:59;;;;;;;3.30;1.85;;;6.70;49.40;;;;;;5029109;28;20041;-44
2023/04/04 08:49:32;;;;;;;5.57;2.33;;;6.80;49.20;;;;;;5029547;28;20467;-44
2023/04/04 08:52:01;;;;;;;3.97;1.85;;;6.90;49.00;;;;;;5029400;28;20167;-43
2023/04/04 08:54:31;;;;;;;2.80;1.90;;;6.90;48.80;;;;;;5023368;28;20121;-47
2023/04/04 08:56:58;;;;;;;5.05;2.50;;;7.00;48.60;;;;;;5029499;28;20041;-48
2023/04/04 08:59:25;;;;;;;3.28;1.90;;;7.00;48.40;;;;;;5030628;28;20047;-47
2023/04/04 09:02:24;;;;;;;3.22;2.05;;;7.10;48.30;;;;;;5028980;28;20037;-46
2023/04/04 09:04:52;;;;;;;3.45;2.00;;;7.20;47.80;;;;;;5020734;28;20064;-48
2023/04/04 09:07:33;;;;;;;3.10;1.83;;;7.20;48.10;;;;;;5029527;28;20041;-43
2023/04/04 09:10:03;;;;;;;2.80;2.00;;;7.30;47.90;;;;;;5030325;28;20100;-44
2023/04/04 09:12:34;;;;;;;2.85;1.65;;;7.40;47.70;;;;;;5026147;28;20472;-47
2023/04/04 09:15:02;;;;;;;2.25;1.58;;;7.40;47.60;;;;;;5026713;28;20042;-43
2023/04/04 09:17:29;;;;;;;2.40;1.85;;;7.40;47.30;;;;;;5029930;28;20033;-44
2023/04/04 09:20:03;;;;;;;2.35;1.60;;;7.50;47.30;;;;;;5027013;28;20095;-46
2023/04/04 09:22:29;;;;;;;1.83;1.63;;;7.50;47.00;;;;;;5021126;28;20049;-44
2023/04/04 09:24:58;;;;;;;4.38;2.35;;;7.60;47.00;;;;;;5029905;28;20050;-48
2023/04/04 09:27:27;;;;;;;4.03;2.10;;;7.60;47.00;;;;;;5030103;28;20046;-45
2023/04/04 09:30:01;;;;;;;2.67;1.80;;;7.70;46.90;;;;;;5029930;28;20056;-45
2023/04/04 09:32:31;;;;;;;2.45;1.67;;;7.70;46.70;;;;;;5026529;28;20049;-45
2023/04/04 09:34:58;;;;;;;3.58;2.08;;;7.80;46.60;;;;;;5025141;28;20046;-45
2023/04/04 09:37:27;;;;;;;2.97;1.67;;;7.90;46.50;;;;;;5028266;28;20068;-47
2023/04/04 09:39:54;;;;;;;4.40;1.33;;;7.90;46.50;;;;;;5028069;28;20072;-49
2023/04/04 09:42:23;;;;;;;2.75;1.90;;;8.00;46.00;;;;;;5025124;28;20041;-44
2023/04/04 09:44:53;;;;;;;3.08;2.08;;;8.00;46.10;;;;;;5028017;28;20579;-45
2023/04/04 09:47:27;;;;;;;2.22;1.80;;;8.10;45.90;;;;;;5025644;28;20055;-45
2023/04/04 09:49:58;;;;;;;3.50;2.10;;;8.10;45.40;;;;;;5025816;28;20037;-44
2023/04/04 09:52:25;;;;;;;4.65;2.22;;;8.10;45.70;;;;;;5027026;28;20106;-48
2023/04/04 09:54:59;;;;;;;4.50;1.77;;;8.20;45.50;;;;;;5024923;28;20046;-45
2023/04/04 09:57:33;;;;;;;4.38;2.03;;;8.20;45.00;;;;;;5030191;28;20038;-44
2023/04/04 10:00:03;;;;;;;4.00;1.33;;;8.30;45.30;;;;;;5025064;28;20048;-43
2023/04/04 10:02:37;;;;;;;2.58;1.95;;;8.30;45.20;;;;;;5025904;28;20041;-46
2023/04/04 10:05:09;;;;;;;4.88;1.90;;;8.40;45.00;;;;;;5025761;28;20116;-46
2023/04/04 10:07:38;;;;;;;3.92;1.77;;;8.40;45.20;;;;;;5029382;28;20045;-46
2023/04/04 10:10:08;;;;;;;2.33;1.63;;;8.50;45.30;;;;;;5028656;28;20679;-44
2023/04/04 10:12:37;;;;;;;4.28;2.17;;;8.50;45.20;;;;;;5021534;28;20306;-44
2023/04/04 10:15:07;;;;;;;3.58;1.95;;;8.60;44.80;;;;;;5028702;28;20037;-45
2023/04/04 10:17:38;;;;;;;4.07;1.77;;;8.60;45.00;;;;;;5042994;22;20544;-49
2023/04/04 10:20:10;;;;;;;2.28;1.40;;;8.70;44.40;;;;;;5023124;28;20055;-54
2023/04/04 10:22:38;;;;;;;2.47;1.80;;;8.70;44.60;;;;;;5038670;28;20523;-53
2023/04/04 10:25:06;;;;;;;4.30;1.88;;;8.80;44.50;;;;;;5028115;28;20038;-54
2023/04/04 10:27:34;;;;;;;1.85;1.33;;;8.80;44.30;;;;;;5019080;28;20041;-50
2023/04/04 10:30:01;;;;;;;2.30;1.67;;;8.90;44.50;;;;;;5027902;28;20493;-50
2023/04/04 10:32:55;;;;;;;5.03;1.77;;;8.90;44.40;;;;;;5029069;28;20048;-50
2023/04/04 10:35:24;;;;;;;3.33;1.80;;;9.00;44.00;;;;;;5024498;28;20042;-53
2023/04/04 10:37:58;;;;;;;3.42;1.63;;;9.10;44.20;;;;;;5027691;28;20044;-50
2023/04/04 10:40:31;;;;;;;3.08;2.03;;;9.10;43.40;;;;;;5028072;28;20040;-51
2023/04/04 10:43:01;;;;;;;2.92;2.00;;;9.20;43.50;;;;;;5017467;28;20192;-53
2023/04/04 10:45:30;;;;;;;2.00;1.65;;;9.20;43.40;;;;;;5028891;28;20405;-53
2023/04/04 10:47:59;;;;;;;3.22;1.95;;;9.20;43.50;;;;;;5031429;28;20053;-54
2023/04/04 10:50:27;;;;;;;3.28;1.80;;;9.30;43.30;;;;;;5023461;28;20129;-49
2023/04/04 10:52:56;;;;;;;3.30;1.88;;;9.40;43.50;;;;;;5021047;28;20056;-50
2023/04/04 10:55:23;;;;;;;5.93;2.28;;;9.40;43.10;;;;;;5028828;28;20758;-53
2023/04/04 10:57:52;;;;;;;3.42;1.80;;;9.40;42.90;;;;;;5025042;28;20418;-51
2023/04/04 11:00:25;;;;;;;4.50;1.70;;;9.40;42.80;;;;;;5020536;28;20037;-54
2023/04/04 11:02:51;;;;;;;1.80;1.63;;;9.50;42.10;;;;;;5018710;28;20049;-56
2023/04/04 11:05:21;;;;;;;3.97;1.85;;;9.50;42.30;;;;;;5025716;28;20295;-51
2023/04/04 11:07:59;;;;;;;2.30;1.88;;;9.50;42.40;;;;;;5027870;28;20055;-50
2023/04/04 11:10:32;;;;;;;2.15;1.45;;;9.60;42.40;;;;;;5019646;28;20049;-52
2023/04/04 11:13:07;;;;;;;2.53;1.45;;;9.70;42.50;;;;;;5020838;28;20052;-51
2023/04/04 11:15:55;;;;;;;2.10;1.58;;;9.70;42.60;;;;;;5022193;28;20493;-50
2023/04/04 11:18:42;;;;;;;4.93;2.30;;;9.70;42.10;;;;;;5032372;28;20045;-53
2023/04/04 11:21:22;;;;;;;3.38;2.28;;;9.80;42.00;;;;;;5030054;28;20044;-51
2023/04/04 11:24:13;;;;;;;3.63;1.92;;;9.80;42.00;;;;;;5028118;28;20053;-52
2023/04/04 11:26:41;;;;;;;2.50;2.10;;;9.90;42.00;;;;;;5029908;28;20041;-51
2023/04/04 11:29:18;;;;;;;2.83;1.83;;;9.90;42.10;;;;;;5030078;28;20709;-50
2023/04/04 11:31:44;;;;;;;2.00;1.50;;;9.90;41.90;;;;;;5024890;28;20128;-51
2023/04/04 11:34:13;;;;;;;2.88;1.80;;;10.00;41.80;;;;;;5026462;28;20045;-53
2023/04/04 11:36:41;;;;;;;3.60;1.98;;;10.00;41.70;;;;;;5030662;28;20046;-50
2023/04/04 11:39:21;;;;;;;3.08;2.05;;;10.10;42.00;;;;;;5014519;28;20056;-52
2023/04/04 11:41:51;;;;;;;3.03;1.95;;;10.20;41.30;;;;;;5026960;28;20493;-50
2023/04/04 11:44:22;;;;;;;3.08;1.75;;;10.20;41.70;;;;;;5028131;28;20556;-53
2023/04/04 11:47:09;;;;;;;5.90;2.25;;;10.20;41.30;;;;;;5030653;28;20041;-54
2023/04/04 11:49:38;;;;;;;1.70;1.60;;;10.30;41.50;;;;;;5027202;28;20046;-53
2023/04/04 11:52:08;;;;;;;4.78;2.67;;;10.30;41.40;;;;;;5027108;28;20038;-53
2023/04/04 11:54:39;;;;;;;3.15;2.42;;;10.40;41.90;;;;;;5031782;28;20041;-53
2023/04/04 11:57:13;;;;;;;2.90;2.60;;;10.40;42.20;;;;;;5030992;28;20544;-56
2023/04/04 11:59:44;;;;;;;4.55;2.55;;;10.40;41.60;;;;;;5028765;28;20038;-53
2023/04/04 12:02:12;;;;;;;2.47;2.13;;;10.50;41.60;;;;;;5026424;28;20046;-52
2023/04/04 12:04:44;;;;;;;4.15;2.88;;;10.50;41.70;;;;;;5022997;28;20076;-54
2023/04/04 12:07:12;;;;;;;2.67;2.47;;;10.60;42.40;;;;;;5029850;28;20041;-52
2023/04/04 12:09:41;;;;;;;4.80;2.70;;;10.60;42.00;;;;;;5031287;28;20072;-52
2023/04/04 12:12:13;;;;;;;6.50;3.20;;;10.70;42.10;;;;;;5023693;28;20064;-54
2023/04/04 12:14:40;;;;;;;5.50;3.28;;;10.80;41.60;;;;;;5019819;28;20046;-54
2023/04/04 12:17:07;;;;;;;3.58;2.83;;;10.80;41.70;;;;;;5024667;28;20449;-54
2023/04/04 12:19:37;;;;;;;3.22;2.55;;;10.90;41.40;;;;;;5011611;28;20050;-53
2023/04/04 12:22:06;;;;;;;3.90;3.00;;;10.90;41.20;;;;;;5018914;28;20503;-53
2023/04/04 12:24:35;;;;;;;6.30;2.45;;;11.00;41.50;;;;;;5029892;28;20046;-55
2023/04/04 12:27:02;;;;;;;6.30;3.50;;;11.00;41.50;;;;;;5021806;28;20499;-52
2023/04/04 12:29:36;;;;;;;7.63;3.65;;;11.10;41.70;;;;;;5026385;28;20120;-53
2023/04/04 12:32:04;;;;;;;6.72;3.33;;;11.20;41.30;;;;;;5026191;28;20054;-52
2023/04/04 12:34:40;;;;;;;3.65;2.83;;;11.20;41.00;;;;;;5020514;28;20042;-54
2023/04/04 12:37:10;;;;;;;8.68;3.78;;;11.30;41.00;;;;;;5021394;28;20033;-50
2023/04/04 12:39:47;;;;;;;3.38;2.53;;;11.40;40.70;;;;;;5030655;28;20571;-54
2023/04/04 12:42:22;;;;;;;6.18;2.95;;;11.40;40.60;;;;;;5022400;28;20042;-55
2023/04/04 12:44:53;;;;;;;4.00;3.13;;;11.40;40.30;;;;;;5028122;28;20049;-53
2023/04/04 12:47:21;;;;;;;6.07;3.05;;;11.50;40.70;;;;;;5030205;28;20041;-54
2023/04/04 12:49:48;;;;;;;4.00;3.13;;;11.50;40.50;;;;;;5030291;28;20083;-53
2023/04/04 12:52:18;;;;;;;5.05;3.33;;;11.60;40.60;;;;;;5027895;28;20056;-50
2023/04/04 12:54:46;;;;;;;2.63;2.42;;;11.70;40.40;;;;;;5028846;28;20059;-53
2023/04/04 12:57:24;;;;;;;6.22;3.38;;;11.70;40.40;;;;;;5023568;28;20042;-50
2023/04/04 12:59:53;;;;;;;3.35;3.03;;;11.80;40.40;;;;;;5028506;28;20647;-50
2023/04/04 13:02:21;;;;;;;3.60;2.78;;;11.90;39.80;;;;;;5021298;28;20037;-50
2023/04/04 13:04:56;;;;;;;3.72;2.50;;;12.00;39.50;;;;;;5024595;28;20464;-52
2023/04/04 13:07:27;;;;;;;4.72;2.80;;;12.10;39.10;;;;;;5024493;28;20057;-53
2023/04/04 13:10:03;;;;;;;3.70;2.72;;;12.10;38.60;;;;;;5029458;28;20037;-54
2023/04/04 13:12:57;;;;;;;4.38;2.70;;;12.20;39.00;;;;;;5029335;28;20099;-52